CSCL Oceania — VRBI2 — position and weather

sailwx.info

Track history (hours):
 
Tides and Currents Weather Stations Pressure Air Temp Water Temp Dewpoint Dewpoint Depression Visibility Wind Speed Wind Dir Waves Ship Positions

CSCL Oceania

Last reported at 2017-Apr-23 23:22 UTC. Time now 2017-Apr-25 10:41 UTC.
Position N 09°32' W 079°50'.

Length 334 m; beam 42.8 m; draft 14.5 m.

Type: Cargo ship. MMSI: 477020300.

Date/timePositionNaut miles runAvg speedWind from/ knotsBaromVisibWave heightAir tempDewpointWater temp
2017-Apr-23 23:22N 09°32' W 079°50'513.1
2017-Apr-23 23:00N 09°28' W 079°53'611.5
2017-Apr-23 22:30N 09°22' W 079°54'1 1.5
2017-Apr-23 21:59N 09°22' W 079°53'0 0.0
2017-Apr-23 21:29N 09°22' W 079°53'0 0.0
2017-Apr-23 20:59N 09°22' W 079°53'0 0.0
2017-Apr-23 20:26N 09°22' W 079°53'0 0.0
2017-Apr-23 19:59N 09°22' W 079°53'0 0.0
2017-Apr-23 19:26N 09°22' W 079°53'0 0.0
2017-Apr-23 18:59N 09°22' W 079°53'0 0.0
2017-Apr-23 18:26N 09°22' W 079°53'0 0.0
2017-Apr-23 17:56N 09°22' W 079°53'0 0.0
2017-Apr-23 17:26N 09°22' W 079°53'0 0.0
2017-Apr-23 16:59N 09°22' W 079°53'0 0.0
2017-Apr-23 16:29N 09°22' W 079°53'0 0.0
2017-Apr-23 15:59N 09°22' W 079°53'0 0.0
2017-Apr-23 15:29N 09°22' W 079°53'0 0.0
2017-Apr-23 14:59N 09°22' W 079°53'0 0.0
2017-Apr-23 13:56N 09°22' W 079°53'0 0.0
2017-Apr-23 13:29N 09°22' W 079°53'0 0.0
2017-Apr-23 12:59N 09°22' W 079°53'0 0.0
2017-Apr-23 12:29N 09°22' W 079°53'0 0.0
2017-Apr-23 11:59N 09°22' W 079°53'0 0.0
2017-Apr-23 11:26N 09°22' W 079°53'0 0.0
2017-Apr-23 10:59N 09°22' W 079°53'0 0.0
2017-Apr-23 10:29N 09°22' W 079°53'0 0.0
2017-Apr-23 09:59N 09°22' W 079°53'0 0.0
2017-Apr-23 09:29N 09°22' W 079°53'0 0.0
2017-Apr-23 08:56N 09°22' W 079°53'0 0.0
2017-Apr-23 08:29N 09°22' W 079°53'0 0.0
2017-Apr-23 07:59N 09°22' W 079°53'0 0.0
2017-Apr-23 07:29N 09°22' W 079°53'0 0.0
2017-Apr-23 06:56N 09°22' W 079°53'0 0.0
2017-Apr-23 06:29N 09°22' W 079°53'0 0.0
2017-Apr-23 05:59N 09°22' W 079°53'0 0.0
2017-Apr-23 05:29N 09°22' W 079°53'0 0.0
2017-Apr-23 04:59N 09°22' W 079°53'0 0.0
2017-Apr-23 04:29N 09°22' W 079°53'0 0.0
2017-Apr-23 03:59N 09°22' W 079°53'0 0.0
2017-Apr-23 03:29N 09°22' W 079°53'0 0.0
2017-Apr-23 02:54N 09°22' W 079°53'0 0.8
2017-Apr-23 02:30N 09°22' W 079°53'3 5.7
2017-Apr-23 02:00N 09°25' W 079°54'4 8.2
2017-Apr-23 01:30N 09°21' W 079°55'4 7.9
2017-Apr-23 01:00N 09°17' W 079°55'1 1.1
2017-Apr-23 00:30N 09°16' W 079°55'0 0.4
2017-Apr-23 00:00N 09°16' W 079°55'0 0.1
2017-Apr-22 23:30N 09°16' W 079°55'0 0.5
2017-Apr-22 23:00N 09°16' W 079°55'0 0.9
2017-Apr-22 22:29N 09°16' W 079°55'0 0.7
2017-Apr-22 22:00N 09°15' W 079°55'1 1.0
2017-Apr-22 21:22N 09°15' W 079°55'0 0.1
2017-Apr-22 20:58N 09°15' W 079°55'0 0.0
2017-Apr-22 20:25N 09°15' W 079°55'0 0.0
2017-Apr-22 19:58N 09°15' W 079°55'0 0.2
2017-Apr-22 19:28N 09°15' W 079°55'0 0.3
2017-Apr-22 18:58N 09°15' W 079°55'0 0.1
2017-Apr-22 18:28N 09°15' W 079°55'0 0.2
2017-Apr-22 17:43N 09°15' W 079°55'0 0.1
2017-Apr-22 17:25N 09°15' W 079°55'0 0.1
2017-Apr-22 16:40N 09°15' W 079°55'0 0.3
2017-Apr-22 16:28N 09°15' W 079°55'2 3.4
2017-Apr-22 15:59N 09°13' W 079°55'3 6.4
2017-Apr-22 15:30N 09°11' W 079°53'  
2017-Apr-19 06:00N 14°48' W 096°42'   350 / 91017.1 5.4 28.025.227.0
Track history (hours):
 
Tides and Currents Weather Stations Pressure Air Temp Water Temp Dewpoint Dewpoint Depression Visibility Wind Speed Wind Dir Waves Ship Positions

CSCL Oceania

Last reported at 2017-Apr-23 23:22 UTC. Time now 2017-Apr-25 10:41 UTC.
Position N 09°32' W 079°50'.

Length 334 m; beam 42.8 m; draft 14.5 m.

Type: Cargo ship. MMSI: 477020300.

Date/timePositionNaut miles runAvg speedWind from/ knotsBaromVisibWave heightAir tempDewpointWater temp
2017-Apr-23 23:22N 09°32' W 079°50'513.1
2017-Apr-23 23:00N 09°28' W 079°53'611.5
2017-Apr-23 22:30N 09°22' W 079°54'1 1.5
2017-Apr-23 21:59N 09°22' W 079°53'0 0.0
2017-Apr-23 21:29N 09°22' W 079°53'0 0.0
2017-Apr-23 20:59N 09°22' W 079°53'0 0.0
2017-Apr-23 20:26N 09°22' W 079°53'0 0.0
2017-Apr-23 19:59N 09°22' W 079°53'0 0.0
2017-Apr-23 19:26N 09°22' W 079°53'0 0.0
2017-Apr-23 18:59N 09°22' W 079°53'0 0.0
2017-Apr-23 18:26N 09°22' W 079°53'0 0.0
2017-Apr-23 17:56N 09°22' W 079°53'0 0.0
2017-Apr-23 17:26N 09°22' W 079°53'0 0.0
2017-Apr-23 16:59N 09°22' W 079°53'0 0.0
2017-Apr-23 16:29N 09°22' W 079°53'0 0.0
2017-Apr-23 15:59N 09°22' W 079°53'0 0.0
2017-Apr-23 15:29N 09°22' W 079°53'0 0.0
2017-Apr-23 14:59N 09°22' W 079°53'0 0.0
2017-Apr-23 13:56N 09°22' W 079°53'0 0.0
2017-Apr-23 13:29N 09°22' W 079°53'0 0.0
2017-Apr-23 12:59N 09°22' W 079°53'0 0.0
2017-Apr-23 12:29N 09°22' W 079°53'0 0.0
2017-Apr-23 11:59N 09°22' W 079°53'0 0.0
2017-Apr-23 11:26N 09°22' W 079°53'0 0.0
2017-Apr-23 10:59N 09°22' W 079°53'0 0.0
2017-Apr-23 10:29N 09°22' W 079°53'0 0.0
2017-Apr-23 09:59N 09°22' W 079°53'0 0.0
2017-Apr-23 09:29N 09°22' W 079°53'0 0.0
2017-Apr-23 08:56N 09°22' W 079°53'0 0.0
2017-Apr-23 08:29N 09°22' W 079°53'0 0.0
2017-Apr-23 07:59N 09°22' W 079°53'0 0.0
2017-Apr-23 07:29N 09°22' W 079°53'0 0.0
2017-Apr-23 06:56N 09°22' W 079°53'0 0.0
2017-Apr-23 06:29N 09°22' W 079°53'0 0.0
2017-Apr-23 05:59N 09°22' W 079°53'0 0.0
2017-Apr-23 05:29N 09°22' W 079°53'0 0.0
2017-Apr-23 04:59N 09°22' W 079°53'0 0.0
2017-Apr-23 04:29N 09°22' W 079°53'0 0.0
2017-Apr-23 03:59N 09°22' W 079°53'0 0.0
2017-Apr-23 03:29N 09°22' W 079°53'0 0.0
2017-Apr-23 02:54N 09°22' W 079°53'0 0.8
2017-Apr-23 02:30N 09°22' W 079°53'3 5.7
2017-Apr-23 02:00N 09°25' W 079°54'4 8.2
2017-Apr-23 01:30N 09°21' W 079°55'4 7.9
2017-Apr-23 01:00N 09°17' W 079°55'1 1.1
2017-Apr-23 00:30N 09°16' W 079°55'0 0.4
2017-Apr-23 00:00N 09°16' W 079°55'0 0.1
2017-Apr-22 23:30N 09°16' W 079°55'0 0.5
2017-Apr-22 23:00N 09°16' W 079°55'0 0.9
2017-Apr-22 22:29N 09°16' W 079°55'0 0.7
2017-Apr-22 22:00N 09°15' W 079°55'1 1.0
2017-Apr-22 21:22N 09°15' W 079°55'0 0.1
2017-Apr-22 20:58N 09°15' W 079°55'0 0.0
2017-Apr-22 20:25N 09°15' W 079°55'0 0.0
2017-Apr-22 19:58N 09°15' W 079°55'0 0.2
2017-Apr-22 19:28N 09°15' W 079°55'0 0.3
2017-Apr-22 18:58N 09°15' W 079°55'0 0.1
2017-Apr-22 18:28N 09°15' W 079°55'0 0.2
2017-Apr-22 17:43N 09°15' W 079°55'0 0.1
2017-Apr-22 17:25N 09°15' W 079°55'0 0.1
2017-Apr-22 16:40N 09°15' W 079°55'0 0.3
2017-Apr-22 16:28N 09°15' W 079°55'2 3.4
2017-Apr-22 15:59N 09°13' W 079°55'3 6.4
2017-Apr-22 15:30N 09°11' W 079°53'  
2017-Apr-19 06:00N 14°48' W 096°42'   350 / 91017.1 5.4 28.025.227.0

Dump ship's entire track history